Time;durP1;ratioP1;P1;durP2;ratioP2;P2;SDS_P1;SDS_P2;PMS_P1;PMS_P2;Temp;Humidity;BMP_temperature;BMP_pressure;BME280_temperature;BME280_humidity;BME280_pressure;Samples;Min_cycle;Max_cycle;Signal;HPM_P1;HPM_P2
2023/01/13 00:00:17;;;;;;;54.05;6.18;;;;;;;8.04;100.00;100164.63;5040257;28;20037;-41
2023/01/13 00:02:42;;;;;;;46.10;5.50;;;;;;;8.08;100.00;100176.66;5034868;28;20036;-41
2023/01/13 00:05:08;;;;;;;37.17;4.97;;;;;;;8.05;100.00;100177.00;5032257;28;20034;-41
2023/01/13 00:07:33;;;;;;;50.70;6.22;;;;;;;8.05;100.00;100185.03;5045228;28;20473;-41
2023/01/13 00:09:59;;;;;;;63.15;6.07;;;;;;;8.05;100.00;100173.47;5038503;28;20034;-41
2023/01/13 00:12:24;;;;;;;64.00;5.78;;;;;;;8.05;100.00;100171.63;5039622;28;20435;-41
2023/01/13 00:14:49;;;;;;;49.40;6.30;;;;;;;8.10;100.00;100176.44;5032878;28;20029;-41
2023/01/13 00:17:15;;;;;;;54.22;6.47;;;;;;;8.09;100.00;100180.97;5037960;28;20033;-42
2023/01/13 00:19:40;;;;;;;51.22;6.45;;;;;;;8.10;100.00;100174.59;5044186;28;20075;-40
2023/01/13 00:22:05;;;;;;;52.50;6.68;;;;;;;8.10;100.00;100169.25;5041779;28;20044;-42
2023/01/13 00:24:31;;;;;;;75.20;6.60;;;;;;;8.13;100.00;100160.81;5045227;28;20115;-41
2023/01/13 00:26:56;;;;;;;52.15;5.68;;;;;;;8.17;100.00;100171.22;5041928;28;20111;-41
2023/01/13 00:29:21;;;;;;;42.42;5.28;;;;;;;8.23;100.00;100157.06;5045385;28;20025;-42
2023/01/13 00:31:48;;;;;;;59.17;7.22;;;;;;;8.23;100.00;100152.53;5038188;28;20087;-41
2023/01/13 00:34:13;;;;;;;49.30;5.13;;;;;;;8.26;100.00;100154.00;5044004;28;20397;-41
2023/01/13 00:36:39;;;;;;;57.17;5.93;;;;;;;8.30;100.00;100155.31;5034985;28;20039;-41
2023/01/13 00:39:04;;;;;;;51.92;6.72;;;;;;;8.26;100.00;100172.78;5045190;28;20029;-41
2023/01/13 00:43:21;;;;;;;51.90;6.18;;;;;;;8.23;100.00;100167.78;5041787;28;20108;-40
2023/01/13 00:44:15;;;;;;;68.10;6.97;;;;;;;8.21;100.00;100153.72;5036065;28;20512;-41
2023/01/13 00:46:40;;;;;;;80.50;8.02;;;;;;;8.18;100.00;100138.84;5042290;28;20060;-41
2023/01/13 00:49:05;;;;;;;70.10;8.57;;;;;;;8.17;100.00;100141.72;5042429;28;20156;-41
2023/01/13 00:51:31;;;;;;;65.75;7.28;;;;;;;8.20;100.00;100136.81;5041116;28;20104;-40
2023/01/13 00:53:56;;;;;;;69.80;7.13;;;;;;;8.17;100.00;100149.75;5034586;28;20598;-41
2023/01/13 00:56:23;;;;;;;54.83;6.10;;;;;;;8.18;100.00;100141.53;5031536;28;20103;-41
2023/01/13 00:58:50;;;;;;;61.80;6.32;;;;;;;8.14;100.00;100149.09;5037781;28;20112;-41
2023/01/13 01:01:18;;;;;;;60.60;6.67;;;;;;;8.14;100.00;100138.38;5036140;28;20041;-40
2023/01/13 01:03:46;;;;;;;45.90;5.10;;;;;;;8.11;100.00;100144.13;5033477;28;20307;-41
2023/01/13 01:06:16;;;;;;;57.90;5.72;;;;;;;8.12;100.00;100132.38;5030623;28;20025;-41
2023/01/13 01:08:42;;;;;;;57.50;5.63;;;;;;;8.12;100.00;100135.06;5035857;28;20028;-40
2023/01/13 01:11:13;;;;;;;67.43;6.70;;;;;;;8.06;100.00;100125.06;5049573;28;20393;-41
2023/01/13 01:13:39;;;;;;;69.57;7.72;;;;;;;8.10;100.00;100128.22;5033810;28;20048;-41
2023/01/13 01:16:10;;;;;;;55.50;6.00;;;;;;;8.05;100.00;100128.75;5033712;28;20108;-40
2023/01/13 01:18:37;;;;;;;55.50;6.45;;;;;;;8.03;100.00;100130.81;5035475;28;20488;-41
2023/01/13 01:21:03;;;;;;;63.17;6.90;;;;;;;8.06;100.00;100134.97;5035589;28;20373;-42
2023/01/13 01:23:29;;;;;;;75.55;6.43;;;;;;;8.07;100.00;100137.44;5037684;28;20045;-41
2023/01/13 01:26:00;;;;;;;63.42;7.07;;;;;;;8.07;100.00;100129.41;5034011;28;20040;-40
2023/01/13 01:28:25;;;;;;;68.93;8.13;;;;;;;8.06;100.00;100133.13;5034130;28;20118;-41
2023/01/13 01:30:50;;;;;;;69.47;7.43;;;;;;;8.05;100.00;100134.09;5029949;28;20502;-41
2023/01/13 01:33:16;;;;;;;68.22;7.05;;;;;;;8.06;100.00;100133.13;5031081;28;20025;-42
2023/01/13 01:35:41;;;;;;;55.78;6.25;;;;;;;8.08;100.00;100128.41;5043290;28;20076;-41
2023/01/13 01:38:07;;;;;;;71.85;7.88;;;;;;;8.09;100.00;100119.34;5044980;28;20021;-41
2023/01/13 01:40:32;;;;;;;71.95;7.70;;;;;;;8.05;100.00;100112.66;5043969;28;20116;-41
2023/01/13 01:45:41;;;;;;;73.78;7.78;;;;;;;8.06;100.00;100134.97;5044121;28;20075;-38
2023/01/13 01:48:07;;;;;;;75.68;7.88;;;;;;;8.10;100.00;100139.75;5045796;28;20045;-41
2023/01/13 01:50:33;;;;;;;55.05;6.72;;;;;;;8.10;100.00;100130.88;5042166;28;20058;-41
2023/01/13 01:53:03;;;;;;;80.15;6.97;;;;;;;8.11;100.00;100136.09;5043041;28;20025;-41
2023/01/13 01:55:32;;;;;;;75.13;7.10;;;;;;;8.12;100.00;100140.41;5037788;28;20017;-42
2023/01/13 01:58:06;;;;;;;77.13;7.25;;;;;;;8.20;100.00;100125.28;5042076;28;20046;-41
2023/01/13 02:00:32;;;;;;;54.22;7.10;;;;;;;8.24;100.00;100122.03;5030232;28;20116;-40
2023/01/13 02:02:58;;;;;;;62.35;6.63;;;;;;;8.26;100.00;100129.88;5037667;28;20163;-41
2023/01/13 02:05:23;;;;;;;64.50;6.57;;;;;;;8.26;100.00;100130.72;5036395;28;20124;-41
2023/01/13 02:07:51;;;;;;;55.30;6.47;;;;;;;8.30;100.00;100136.56;5036847;28;20025;-41
2023/01/13 02:10:19;;;;;;;82.07;7.78;;;;;;;8.31;100.00;100122.13;5042737;28;20032;-41
2023/01/13 02:12:46;;;;;;;66.60;7.13;;;;;;;8.31;100.00;100122.13;5043006;28;20037;-41
2023/01/13 02:15:20;;;;;;;78.68;7.43;;;;;;;8.33;100.00;100114.72;5027228;28;20103;-41
2023/01/13 02:18:15;;;;;;;71.45;7.93;;;;;;;8.31;100.00;100114.09;5033274;28;20170;-41
2023/01/13 02:20:44;;;;;;;68.75;6.57;;;;;;;8.27;100.00;100118.16;5024182;28;20036;-41
2023/01/13 02:26:36;;;;;;;78.50;8.48;;;;;;;8.24;100.00;100122.03;5045039;28;20075;-41
2023/01/13 02:32:33;;;;;;;73.95;7.43;;;;;;;8.27;100.00;100107.44;5038887;28;20036;-40
2023/01/13 02:35:04;;;;;;;65.57;6.47;;;;;;;8.30;100.00;100128.50;5028837;28;20037;-41
2023/01/13 02:37:32;;;;;;;77.93;7.65;;;;;;;8.36;100.00;100122.41;5043519;28;20052;-41
2023/01/13 02:40:00;;;;;;;71.47;6.72;;;;;;;8.39;100.00;100129.25;5038944;28;20365;-42
2023/01/13 02:45:37;;;;;;;74.00;7.63;;;;;;;8.36;100.00;100114.34;5031883;28;20122;-42
2023/01/13 02:48:05;;;;;;;76.47;9.13;;;;;;;8.36;100.00;100119.72;5044905;28;20021;-41
2023/01/13 02:50:37;;;;;;;80.10;7.32;;;;;;;8.35;100.00;100113.53;5032396;28;20036;-41
2023/01/13 02:53:20;;;;;;;76.10;7.03;;;;;;;8.30;100.00;100115.94;5048071;28;20029;-42
2023/01/13 02:55:48;;;;;;;61.78;7.22;;;;;;;8.26;100.00;100129.88;5036432;28;20080;-41
2023/01/13 02:58:16;;;;;;;62.58;7.47;;;;;;;8.18;100.00;100132.66;5048018;28;20369;-41
2023/01/13 03:00:42;;;;;;;65.55;6.75;;;;;;;8.14;100.00;100134.88;5030116;28;20116;-41
2023/01/13 03:03:07;;;;;;;57.97;6.03;;;;;;;8.11;100.00;100127.22;5033560;28;20101;-40
2023/01/13 03:05:33;;;;;;;51.78;6.03;;;;;;;8.09;100.00;100129.25;5035019;28;20521;-40
2023/01/13 03:08:20;;;;;;;78.82;6.50;;;;;;;8.05;100.00;100126.06;5039346;28;20037;-41
2023/01/13 03:11:04;;;;;;;53.13;5.88;;;;;;;8.03;100.00;100128.13;5043005;28;20078;-41
2023/01/13 03:14:03;;;;;;;50.33;5.20;;;;;;;8.00;100.00;100120.44;5047019;28;20539;-41
2023/01/13 03:16:32;;;;;;;51.85;5.57;;;;;;;7.97;100.00;100120.78;5037030;28;20033;-40
2023/01/13 03:19:09;;;;;;;;;;;;;;;7.93;100.00;100114.16;5033156;28;20064;-40
2023/01/13 03:21:50;;;;;;;38.65;4.53;;;;;;;7.89;100.00;100112.84;5038488;28;19913;-41
2023/01/13 03:24:31;;;;;;;47.90;5.53;;;;;;;7.86;100.00;100102.50;5044024;28;20091;-41
2023/01/13 03:27:27;;;;;;;49.60;5.78;;;;;;;7.84;100.00;100115.22;5032271;28;20038;-41
2023/01/13 03:30:03;;;;;;;53.75;6.60;;;;;;;7.86;100.00;100113.22;5037464;28;20480;-41
2023/01/13 03:32:41;;;;;;;48.40;4.47;;;;;;;7.88;100.00;100105.84;5039154;28;20035;-40
2023/01/13 03:35:22;;;;;;;44.58;4.65;;;;;;;7.88;100.00;100122.72;5041594;28;20068;-40
2023/01/13 03:37:53;;;;;;;39.88;4.35;;;;;;;7.89;100.00;100097.59;5038189;28;20029;-41
2023/01/13 03:40:22;;;;;;;51.58;4.55;;;;;;;7.91;100.00;100092.06;5033533;28;20033;-40
2023/01/13 03:45:38;;;;;;;54.20;5.60;;;;;;;7.95;100.00;100127.34;5035650;28;20078;-41
2023/01/13 03:48:08;;;;;;;48.15;4.18;;;;;;;7.95;100.00;100100.56;5050328;28;20027;-41
2023/01/13 03:50:40;;;;;;;47.53;4.70;;;;;;;7.95;100.00;100101.38;5052118;28;20032;-41
2023/01/13 03:53:09;;;;;;;37.67;4.65;;;;;;;7.93;100.00;100106.13;5042981;28;20488;-50
2023/01/13 03:55:39;;;;;;;26.55;3.15;;;;;;;7.95;100.00;100085.31;5047430;28;20036;-40
2023/01/13 03:58:05;;;;;;;33.45;4.93;;;;;;;7.95;100.00;100089.84;5042318;28;20037;-40
2023/01/13 04:00:34;;;;;;;37.75;3.75;;;;;;;7.92;100.00;100101.75;5044577;28;20026;-41
2023/01/13 04:03:09;;;;;;;41.13;3.38;;;;;;;7.90;100.00;100095.78;5031585;28;20057;-41
2023/01/13 04:05:40;;;;;;;40.38;3.90;;;;;;;7.87;100.00;100098.78;5039915;28;20029;-40
2023/01/13 04:08:15;;;;;;;36.45;3.72;;;;;;;7.84;100.00;100099.16;5032329;28;20412;-42
2023/01/13 04:10:53;;;;;;;30.40;4.28;;;;;;;7.83;100.00;100100.19;5040340;28;20029;-41
2023/01/13 04:13:21;;;;;;;29.25;3.50;;;;;;;7.85;100.00;100111.56;5043757;28;20022;-41
2023/01/13 04:15:47;;;;;;;32.95;3.17;;;;;;;7.88;100.00;100100.47;5045382;28;20539;-41
2023/01/13 04:18:23;;;;;;;44.22;4.13;;;;;;;7.89;100.00;100108.31;5032426;28;20060;-41
2023/01/13 04:20:50;;;;;;;35.53;3.47;;;;;;;7.95;100.00;100103.25;5034106;28;20444;-41
2023/01/13 04:23:16;;;;;;;47.08;5.80;;;;;;;7.94;100.00;100105.09;5032682;28;20079;-41
2023/01/13 04:25:42;;;;;;;44.13;3.95;;;;;;;7.96;100.00;100108.44;5043708;28;20016;-41
2023/01/13 04:28:09;;;;;;;34.88;4.18;;;;;;;8.00;100.00;100122.28;5037134;28;20029;-41
2023/01/13 04:30:34;;;;;;;38.58;4.20;;;;;;;8.01;100.00;100105.22;5035237;28;20029;-40
2023/01/13 04:32:59;;;;;;;50.45;4.15;;;;;;;8.01;100.00;100106.03;5039024;28;20120;-41
2023/01/13 04:35:25;;;;;;;32.40;2.95;;;;;;;8.03;100.00;100101.31;5032868;28;20364;-41
2023/01/13 04:37:50;;;;;;;36.25;3.85;;;;;;;8.05;100.00;100104.63;5033316;28;20148;-41
2023/01/13 04:40:16;;;;;;;34.00;4.03;;;;;;;8.07;100.00;100104.47;5030995;28;20095;-41
2023/01/13 04:42:43;;;;;;;44.83;3.88;;;;;;;8.05;100.00;100107.31;5032812;28;20429;-41
2023/01/13 04:45:09;;;;;;;21.92;3.00;;;;;;;8.06;100.00;100109.00;5048923;28;20518;-41
2023/01/13 04:47:34;;;;;;;40.63;3.97;;;;;;;8.01;100.00;100095.31;5048852;28;20021;-40
2023/01/13 04:49:59;;;;;;;33.03;3.60;;;;;;;8.00;100.00;100104.34;5037043;28;20030;-40
2023/01/13 04:52:25;;;;;;;28.70;2.95;;;;;;;7.99;100.00;100107.22;5039365;28;20128;-41
2023/01/13 04:54:50;;;;;;;35.70;3.28;;;;;;;8.01;100.00;100105.22;5041521;28;20488;-41
2023/01/13 04:57:15;;;;;;;28.77;3.35;;;;;;;8.00;100.00;100101.66;5041782;28;20138;-40
2023/01/13 04:59:41;;;;;;;27.60;3.03;;;;;;;8.00;100.00;100133.81;5035197;28;20118;-41
2023/01/13 05:02:07;;;;;;;34.83;3.75;;;;;;;7.99;100.00;100086.63;5035220;28;20045;-41
2023/01/13 05:04:33;;;;;;;28.10;3.78;;;;;;;7.96;100.00;100103.06;5031825;28;20022;-41
2023/01/13 05:06:58;;;;;;;23.80;2.90;;;;;;;7.94;100.00;100099.72;5039879;28;20044;-41
2023/01/13 05:09:24;;;;;;;30.02;3.15;;;;;;;7.92;100.00;100099.06;5041827;28;20083;-42
2023/01/13 05:17:22;;;;;;;31.42;3.50;;;;;;;7.80;100.00;100098.69;5036397;28;20056;-41
2023/01/13 05:19:47;;;;;;;30.23;3.03;;;;;;;7.76;100.00;100108.09;5035567;28;20032;-41
2023/01/13 05:27:41;;;;;;;37.17;3.55;;;;;;;7.69;100.00;100102.66;5036959;28;20080;-40
2023/01/13 05:30:07;;;;;;;32.47;3.42;;;;;;;7.67;100.00;100102.00;5036787;28;20033;-41
2023/01/13 05:32:32;;;;;;;36.80;3.70;;;;;;;7.66;100.00;100108.38;5028149;28;20121;-41
2023/01/13 05:34:58;;;;;;;43.30;3.65;;;;;;;7.62;100.00;100119.63;5041348;28;20437;-41
2023/01/13 05:37:24;;;;;;;40.92;4.10;;;;;;;7.65;100.00;100122.75;5031905;28;20033;-42
2023/01/13 05:45:17;;;;;;;38.58;3.80;;;;;;;7.64;100.00;100114.94;5032585;28;20056;-43
2023/01/13 05:47:43;;;;;;;38.28;4.05;;;;;;;7.61;100.00;100113.44;5044432;28;20025;-42
2023/01/13 05:50:09;;;;;;;44.58;3.33;;;;;;;7.65;100.00;100112.06;5044233;28;20039;-40
2023/01/13 05:52:34;;;;;;;27.40;3.50;;;;;;;7.66;100.00;100123.59;5036744;28;20024;-41
2023/01/13 05:55:00;;;;;;;40.90;4.20;;;;;;;7.70;100.00;100109.66;5028692;28;20502;-40
2023/01/13 05:57:25;;;;;;;35.22;4.10;;;;;;;7.74;100.00;100103.94;5037688;28;20113;-40
2023/01/13 05:59:50;;;;;;;48.97;4.55;;;;;;;7.74;100.00;100114.66;5037202;28;20038;-40
2023/01/13 06:02:17;;;;;;;39.15;3.88;;;;;;;7.77;100.00;100119.69;5038800;28;20040;-40
2023/01/13 06:04:42;;;;;;;31.40;3.85;;;;;;;7.88;100.00;100097.78;5032183;28;20112;-40
2023/01/13 06:07:07;;;;;;;39.17;4.22;;;;;;;7.87;100.00;100105.00;5037648;28;21284;-40
2023/01/13 06:09:33;;;;;;;34.40;3.53;;;;;;;7.89;100.00;100107.47;5041375;28;20057;-40
2023/01/13 06:11:58;;;;;;;35.40;4.25;;;;;;;7.89;100.00;100104.81;5030090;28;20083;-40
2023/01/13 06:14:23;;;;;;;27.52;3.28;;;;;;;7.86;100.00;100105.19;5035297;28;20513;-40
2023/01/13 06:16:49;;;;;;;34.67;3.30;;;;;;;7.85;100.00;100111.56;5037630;28;20134;-42
2023/01/13 06:19:14;;;;;;;28.38;3.97;;;;;;;7.87;100.00;100114.88;5033884;28;20063;-39
2023/01/13 06:21:40;;;;;;;41.53;3.92;;;;;;;7.88;100.00;100122.72;5030222;28;20033;-39
2023/01/13 06:24:06;;;;;;;43.00;4.80;;;;;;;7.90;100.00;100122.56;5034194;28;20431;-42
2023/01/13 06:26:38;;;;;;;27.42;3.40;;;;;;;7.91;100.00;100108.13;5041593;28;20064;-39
2023/01/13 06:29:04;;;;;;;39.22;4.55;;;;;;;7.93;100.00;100129.41;5044719;28;20086;-40
2023/01/13 06:31:30;;;;;;;27.98;4.75;;;;;;;7.95;100.00;100128.19;5031983;28;20037;-40
2023/01/13 06:34:00;;;;;;;29.52;3.83;;;;;;;7.93;100.00;100135.59;5045888;28;20055;-40
2023/01/13 06:36:30;;;;;;;41.22;5.65;;;;;;;7.89;100.00;100139.63;5048087;28;20021;-40
2023/01/13 06:38:57;;;;;;;40.47;4.35;;;;;;;7.86;100.00;100123.94;5039046;28;20525;-40
2023/01/13 06:44:07;;;;;;;35.67;3.88;;;;;;;7.83;100.00;100138.53;5040252;28;20134;-41
2023/01/13 06:46:33;;;;;;;48.80;4.07;;;;;;;7.84;100.00;100131.31;5047936;28;20025;-39
2023/01/13 06:48:58;;;;;;;34.80;3.97;;;;;;;7.81;100.00;100142.38;5046948;28;21893;-41
2023/01/13 06:51:24;;;;;;;33.72;3.90;;;;;;;7.81;100.00;100134.34;5038207;28;20461;-41
2023/01/13 06:53:49;;;;;;;29.50;3.22;;;;;;;7.80;100.00;100162.16;5048584;28;20032;-40
2023/01/13 06:56:14;;;;;;;29.13;3.53;;;;;;;7.84;100.00;100152.75;5042087;28;20075;-40
2023/01/13 06:58:40;;;;;;;45.53;5.32;;;;;;;7.85;100.00;100133.81;5062180;28;20021;-41
2023/01/13 07:01:05;;;;;;;36.70;4.35;;;;;;;7.85;100.00;100155.25;5040239;28;20116;-41
2023/01/13 07:03:30;;;;;;;48.55;4.38;;;;;;;7.85;100.00;100144.53;5031317;28;20041;-41
2023/01/13 07:05:56;;;;;;;37.75;4.28;;;;;;;7.88;100.00;100170.13;5037059;28;20029;-40
2023/01/13 07:08:22;;;;;;;35.78;5.55;;;;;;;7.91;100.00;100157.19;5033622;28;20495;-40
2023/01/13 07:10:47;;;;;;;46.72;4.22;;;;;;;7.92;100.00;100149.97;5046015;28;20041;-41
2023/01/13 07:16:02;;;;;;;36.08;3.60;;;;;;;7.94;100.00;100158.69;5040904;28;20059;-41
2023/01/13 07:18:30;;;;;;;41.72;4.70;;;;;;;7.95;100.00;100157.66;5030549;28;20033;-41
2023/01/13 07:20:57;;;;;;;34.38;3.78;;;;;;;7.94;100.00;100158.69;5032949;28;20029;-40
2023/01/13 07:23:23;;;;;;;39.60;4.43;;;;;;;7.95;100.00;100152.28;5034214;28;20041;-40
2023/01/13 07:25:49;;;;;;;35.42;4.60;;;;;;;7.94;100.00;100163.22;5043898;28;20115;-41
2023/01/13 07:28:15;;;;;;;44.80;4.85;;;;;;;7.95;100.00;100173.72;5034456;28;20033;-40
2023/01/13 07:30:40;;;;;;;40.50;4.43;;;;;;;7.96;100.00;100169.22;5035952;28;20449;-40
2023/01/13 07:33:06;;;;;;;38.28;4.45;;;;;;;7.99;100.00;100166.19;5031988;28;20123;-40
2023/01/13 07:35:31;;;;;;;44.03;5.07;;;;;;;7.99;100.00;100156.28;5039585;28;20120;-40
2023/01/13 07:37:56;;;;;;;34.08;4.45;;;;;;;8.01;100.00;100161.47;5033763;28;20045;-40
2023/01/13 07:40:21;;;;;;;35.22;4.00;;;;;;;8.00;100.00;100160.63;5036493;28;20033;-40
2023/01/13 07:45:31;;;;;;;42.75;4.13;;;;;;;8.03;100.00;100183.53;5035308;28;20123;-41
2023/01/13 07:47:56;;;;;;;45.75;4.43;;;;;;;8.04;100.00;100175.34;5043164;28;20029;-42
2023/01/13 07:50:22;;;;;;;37.90;4.80;;;;;;;8.05;100.00;100187.72;5046006;28;20033;-43
2023/01/13 07:52:48;;;;;;;48.63;4.43;;;;;;;8.04;100.00;100188.75;5046104;28;20052;-43
2023/01/13 07:55:14;;;;;;;47.92;4.38;;;;;;;8.04;100.00;100191.41;5046569;28;20036;-41
2023/01/13 07:57:39;;;;;;;38.03;5.00;;;;;;;8.06;100.00;100199.28;5044901;28;20028;-41
2023/01/13 08:00:05;;;;;;;36.72;4.47;;;;;;;8.05;100.00;100202.97;5045541;28;20476;-41
2023/01/13 08:02:30;;;;;;;48.55;4.45;;;;;;;8.05;100.00;100198.44;5042672;28;20105;-42
2023/01/13 08:04:56;;;;;;;47.60;4.60;;;;;;;8.03;100.00;100205.84;5041901;28;20032;-42
2023/01/13 08:07:22;;;;;;;37.85;4.68;;;;;;;8.01;100.00;100229.31;5045540;28;20039;-42
2023/01/13 08:09:47;;;;;;;39.28;5.38;;;;;;;7.99;100.00;100225.13;5042977;28;20476;-41
2023/01/13 08:14:57;;;;;;;46.30;6.10;;;;;;;8.01;100.00;100223.13;5048211;28;20043;-40
2023/01/13 08:17:22;;;;;;;53.60;4.80;;;;;;;7.98;100.00;100228.81;5048553;28;20037;-41
2023/01/13 08:19:47;;;;;;;51.25;6.10;;;;;;;7.99;100.00;100230.50;5042815;28;20033;-42
2023/01/13 08:22:13;;;;;;;51.88;5.03;;;;;;;7.97;100.00;100230.66;5043295;28;20111;-41
2023/01/13 08:24:38;;;;;;;51.70;5.22;;;;;;;7.96;100.00;100231.69;5043018;28;20471;-41
2023/01/13 08:27:04;;;;;;;54.90;5.43;;;;;;;7.98;100.00;100221.63;5040966;28;20053;-41
2023/01/13 08:29:29;;;;;;;49.50;5.70;;;;;;;7.98;100.00;100234.16;5041043;28;20071;-42
2023/01/13 08:31:54;;;;;;;42.35;4.18;;;;;;;7.91;100.00;100240.25;5045462;28;20480;-43
2023/01/13 08:34:20;;;;;;;58.10;4.80;;;;;;;7.84;100.00;100262.56;5045994;28;20048;-42
2023/01/13 08:36:48;;;;;;;51.05;5.20;;;;;;;7.78;100.00;100239.19;5047496;28;20041;-42
2023/01/13 08:39:13;;;;;;;65.75;5.25;;;;;;;7.77;100.00;100256.28;5048805;28;20029;-42
2023/01/13 08:41:54;;;;;;;51.55;5.05;;;;;;;7.76;100.00;100246.56;5049005;28;20080;-42
2023/01/13 08:44:19;;;;;;;64.55;5.90;;;;;;;7.74;100.00;100248.59;5046919;28;20178;-41
2023/01/13 08:46:45;;;;;;;39.58;4.13;;;;;;;7.75;100.00;100259.13;5046246;28;20052;-42
2023/01/13 08:49:10;;;;;;;47.20;4.65;;;;;;;7.76;100.00;100249.25;5046005;28;20187;-42
2023/01/13 08:51:35;;;;;;;46.63;4.43;;;;;;;7.77;100.00;100251.75;5045128;28;20021;-42
2023/01/13 08:54:01;;;;;;;43.83;4.32;;;;;;;7.82;100.00;100264.59;5046335;28;20078;-42
2023/01/13 08:56:28;;;;;;;36.45;4.55;;;;;;;7.86;100.00;100241.81;5046337;28;20112;-43
2023/01/13 08:58:57;;;;;;;47.35;5.55;;;;;;;7.94;100.00;100254.31;5041092;28;20033;-43
2023/01/13 09:01:22;;;;;;;45.83;4.60;;;;;;;8.01;100.00;100264.13;5042615;28;20152;-41
2023/01/13 09:03:48;;;;;;;39.30;4.55;;;;;;;8.05;100.00;100278.81;5044312;28;20166;-43
2023/01/13 09:06:13;;;;;;;44.40;4.15;;;;;;;8.07;100.00;100276.81;5047083;28;20033;-42
2023/01/13 09:08:38;;;;;;;40.05;4.32;;;;;;;8.09;100.00;100274.78;5044161;28;20116;-42
2023/01/13 09:13:10;;;;;;;55.40;5.32;;;;;;;8.14;100.00;100276.94;5046765;28;20460;-42
2023/01/13 09:13:49;;;;;;;38.42;3.83;;;;;;;8.11;100.00;100291.53;5046618;28;20037;-43
2023/01/13 09:16:15;;;;;;;58.13;4.72;;;;;;;8.11;100.00;100291.53;5046357;28;20401;-42
2023/01/13 09:18:40;;;;;;;45.47;4.57;;;;;;;8.12;100.00;100285.16;5048137;28;20047;-42
2023/01/13 09:21:05;;;;;;;42.38;4.82;;;;;;;8.12;100.00;100287.81;5044810;28;20398;-42
2023/01/13 09:23:31;;;;;;;44.08;4.32;;;;;;;8.14;100.00;100287.66;5046400;28;20090;-43
2023/01/13 09:25:56;;;;;;;55.58;5.65;;;;;;;8.17;100.00;100310.59;5046438;28;20036;-42
2023/01/13 09:28:21;;;;;;;45.92;4.32;;;;;;;8.20;100.00;100299.50;5045227;28;20021;-43
2023/01/13 09:30:47;;;;;;;52.25;4.43;;;;;;;8.16;100.00;100314.25;5043815;28;20395;-42
2023/01/13 09:35:58;;;;;;;39.33;5.32;;;;;;;8.20;100.00;100312.91;5040095;28;20403;-41
2023/01/13 09:38:23;;;;;;;47.15;5.22;;;;;;;8.26;100.00;100314.84;5044576;28;20017;-43
2023/01/13 09:40:48;;;;;;;38.20;5.22;;;;;;;8.31;100.00;100320.53;5044120;28;20451;-42
2023/01/13 09:49:04;;;;;;;;;;;;;;;8.37;100.00;100335.88;5044281;28;20032;-43
2023/01/13 09:51:34;;;;;;;34.30;4.43;;;;;;;8.36;100.00;100340.41;5046652;28;19905;-42
2023/01/13 09:54:11;;;;;;;36.83;3.78;;;;;;;8.40;100.00;100346.31;5044640;28;20071;-43
2023/01/13 09:56:36;;;;;;;33.95;4.68;;;;;;;8.43;100.00;100355.84;5045026;28;20115;-41
2023/01/13 09:59:01;;;;;;;40.90;3.90;;;;;;;8.42;100.00;100354.97;5046617;28;20519;-41
2023/01/13 10:01:58;;;;;;;35.70;3.72;;;;;;;8.39;100.00;100367.88;5042605;28;20071;-42
2023/01/13 10:04:23;;;;;;;47.95;4.65;;;;;;;8.36;100.00;100372.59;5047608;28;20043;-42
2023/01/13 10:06:51;;;;;;;33.95;4.55;;;;;;;8.39;100.00;100359.84;5027170;28;20021;-44
2023/01/13 10:09:20;;;;;;;31.98;3.80;;;;;;;8.43;100.00;100366.56;5044388;28;20349;-45
2023/01/13 10:14:44;;;;;;;44.28;4.35;;;;;;;8.36;100.00;100394.03;5040277;28;20265;-41
2023/01/13 10:17:25;;;;;;;48.47;4.47;;;;;;;8.34;100.00;100395.22;5040398;28;20044;-41
2023/01/13 10:19:56;;;;;;;38.35;3.42;;;;;;;8.35;100.00;100407.63;5041943;28;20403;-43
2023/01/13 10:22:39;;;;;;;32.30;4.07;;;;;;;8.37;100.00;100400.22;5044246;28;20472;-42
2023/01/13 10:25:11;;;;;;;35.80;4.00;;;;;;;8.35;100.00;100383.50;5044173;28;20088;-43
2023/01/13 10:27:38;;;;;;;49.88;4.03;;;;;;;8.32;100.00;100410.66;5042966;28;20029;-43
2023/01/13 10:30:20;;;;;;;37.75;3.35;;;;;;;8.33;100.00;100394.41;5041270;28;20033;-43
2023/01/13 10:32:53;;;;;;;27.98;3.50;;;;;;;8.32;100.00;100395.44;5043840;28;20041;-42
2023/01/13 10:35:48;;;;;;;36.15;3.83;;;;;;;8.29;100.00;100406.50;5041848;28;20049;-41
2023/01/13 10:38:15;;;;;;;55.05;4.28;;;;;;;8.29;100.00;100419.91;5044528;28;20036;-42
2023/01/13 10:40:59;;;;;;;35.03;3.28;;;;;;;8.30;100.00;100420.75;5043576;28;20037;-42
2023/01/13 10:43:25;;;;;;;37.05;3.08;;;;;;;8.33;100.00;100399.75;5041819;28;20033;-43
2023/01/13 10:45:58;;;;;;;33.35;4.13;;;;;;;8.36;100.00;100428.06;5044250;28;20025;-43
2023/01/13 10:48:32;;;;;;;37.50;3.92;;;;;;;8.41;100.00;100424.91;5042103;28;20096;-43
2023/01/13 10:50:58;;;;;;;36.22;3.85;;;;;;;8.43;100.00;100423.69;5044042;28;20029;-43
2023/01/13 10:53:24;;;;;;;48.58;5.80;;;;;;;8.44;100.00;100428.03;5043088;28;20028;-43
2023/01/13 10:56:02;;;;;;;34.08;4.43;;;;;;;8.42;100.00;100430.06;5044054;28;20039;-42
2023/01/13 10:58:28;;;;;;;38.25;3.70;;;;;;;8.44;100.00;100449.50;5042179;28;20481;-43
2023/01/13 11:01:04;;;;;;;39.15;4.03;;;;;;;8.48;100.00;100440.09;5042898;28;20040;-42
2023/01/13 11:03:41;;;;;;;30.08;3.25;;;;;;;8.51;100.00;100455.00;5042445;28;20025;-43
2023/01/13 11:06:08;;;;;;;39.23;4.17;;;;;;;8.50;100.00;100443.41;5042730;28;20067;-42
2023/01/13 11:08:45;;;;;;;37.85;3.47;;;;;;;8.53;100.00;100451.13;5042168;28;20411;-43
2023/01/13 11:11:42;;;;;;;41.00;3.75;;;;;;;8.53;100.00;100451.13;5040461;28;20029;-42
2023/01/13 11:14:38;;;;;;;36.88;4.03;;;;;;;8.53;100.00;100443.09;5043207;28;20037;-42
2023/01/13 11:17:19;;;;;;;36.97;4.30;;;;;;;8.51;100.00;100455.81;5041442;28;20021;-42
2023/01/13 11:19:53;;;;;;;40.17;4.07;;;;;;;8.54;100.00;100449.28;5040837;28;20033;-42
2023/01/13 11:22:26;;;;;;;37.20;3.58;;;;;;;8.57;100.00;100460.47;5045097;28;20412;-43
2023/01/13 11:24:58;;;;;;;45.22;3.85;;;;;;;8.63;100.00;100463.44;5047332;28;20054;-43
2023/01/13 11:27:29;;;;;;;38.30;3.35;;;;;;;8.68;100.00;100471.81;5047519;28;20082;-42
2023/01/13 11:30:22;;;;;;;47.33;4.85;;;;;;;8.76;100.00;100475.25;5044810;28;20036;-42
2023/01/13 11:33:05;;;;;;;38.53;4.25;;;;;;;8.76;100.00;100466.38;5043652;28;20131;-41
2023/01/13 11:35:33;;;;;;;36.47;3.30;;;;;;;8.83;100.00;100464.66;5048153;28;20516;-42
2023/01/13 11:38:22;;;;;;;33.60;3.22;;;;;;;8.78;100.00;100470.56;5049474;28;20104;-43
2023/01/13 11:40:49;;;;;;;42.40;3.33;;;;;;;8.86;100.00;100479.56;5044913;28;20029;-43
2023/01/13 11:43:24;;;;;;;34.58;3.58;;;;;;;8.83;100.00;100488.81;5044639;28;20119;-42
2023/01/13 11:45:53;;;;;;;35.25;3.63;;;;;;;8.98;100.00;100500.44;5044571;28;20033;-42
2023/01/13 11:48:22;;;;;;;31.20;2.85;;;;;;;9.09;100.00;100495.66;5045744;28;20472;-42
2023/01/13 11:50:53;;;;;;;36.53;3.63;;;;;;;9.19;100.00;100501.63;5047528;28;20047;-42
2023/01/13 11:53:38;;;;;;;39.70;3.60;;;;;;;9.24;100.00;100496.50;5045134;28;20045;-42
2023/01/13 11:56:23;;;;;;;27.75;4.18;;;;;;;9.30;100.00;100500.34;5045336;28;20060;-43
2023/01/13 11:59:03;;;;;;;38.67;3.47;;;;;;;9.33;100.00;100506.16;5047101;28;20155;-43
2023/01/13 12:01:53;;;;;;;38.20;4.18;;;;;;;9.23;100.00;100505.59;5042365;28;20112;-42
2023/01/13 12:04:21;;;;;;;41.67;4.25;;;;;;;9.15;100.00;100501.13;5043966;28;20035;-43
2023/01/13 12:06:56;;;;;;;33.90;3.90;;;;;;;9.17;100.00;100511.69;5043966;28;20446;-42
2023/01/13 12:09:29;;;;;;;44.10;3.55;;;;;;;9.17;100.00;100519.75;5044410;28;20029;-42
2023/01/13 12:14:59;;;;;;;28.98;3.33;;;;;;;9.11;100.00;100531.19;5041733;28;20424;-42
2023/01/13 12:17:43;;;;;;;26.30;2.95;;;;;;;8.99;100.00;100539.66;5045978;28;20025;-42
2023/01/13 12:20:22;;;;;;;29.95;3.75;;;;;;;8.93;100.00;100551.13;5044891;28;20116;-41
2023/01/13 12:22:51;;;;;;;40.97;2.80;;;;;;;8.92;100.00;100546.75;5044607;28;20055;-42